createdAt,value
2019-03-20T00:00:41.969Z,102476.04
2019-03-20T00:02:48.586Z,102470.30
2019-03-20T00:04:55.017Z,102477.90
2019-03-20T00:07:01.465Z,102479.08
2019-03-20T00:09:10.362Z,102481.05
2019-03-20T00:11:16.956Z,102486.52
2019-03-20T00:13:23.438Z,102480.62
2019-03-20T00:15:29.901Z,102482.67
2019-03-20T00:17:37.370Z,102493.48
2019-03-20T00:19:43.762Z,102492.06
2019-03-20T00:21:51.016Z,102500.08
2019-03-20T00:23:57.598Z,102501.25
2019-03-20T00:26:04.154Z,102496.80
2019-03-20T00:28:10.637Z,102494.91
2019-03-20T00:30:21.440Z,102495.16
2019-03-20T00:32:27.855Z,102502.32
2019-03-20T00:34:35.322Z,102504.30
2019-03-20T00:36:42.099Z,102507.14
2019-03-20T00:38:48.783Z,102501.45
2019-03-20T00:40:55.313Z,102507.75
2019-03-20T00:43:03.056Z,102497.78
2019-03-20T00:45:16.268Z,102501.09
2019-03-20T00:47:23.460Z,102495.81
2019-03-20T00:49:29.814Z,102499.48
2019-03-20T00:51:36.484Z,102503.71
2019-03-20T00:53:46.842Z,102497.52
2019-03-20T00:55:54.643Z,102505.48
2019-03-20T00:58:01.014Z,102503.58
2019-03-20T01:00:18.204Z,102503.02
2019-03-20T01:02:26.112Z,102502.07
2019-03-20T01:04:32.880Z,102503.12
2019-03-20T01:06:39.268Z,102501.28
2019-03-20T01:08:46.005Z,102505.91
2019-03-20T01:10:52.703Z,102501.06
2019-03-20T01:12:59.247Z,102508.69
2019-03-20T01:15:07.971Z,102506.68
2019-03-20T01:17:14.340Z,102510.77
2019-03-20T01:19:20.898Z,102510.34
2019-03-20T01:21:28.945Z,102514.27
2019-03-20T01:23:35.369Z,102512.53
2019-03-20T01:25:41.965Z,102510.92
2019-03-20T01:27:48.293Z,102515.80
2019-03-20T01:29:57.686Z,102518.52
2019-03-20T01:32:04.264Z,102511.73
2019-03-20T01:34:10.859Z,102519.81
2019-03-20T01:36:17.539Z,102515.02
2019-03-20T01:38:25.337Z,102515.80
2019-03-20T01:40:32.601Z,102520.09
2019-03-20T01:42:40.268Z,102524.86
2019-03-20T01:44:46.700Z,102528.33
2019-03-20T01:46:53.295Z,102529.08
2019-03-20T01:48:59.701Z,102528.05
2019-03-20T01:51:22.972Z,102537.80
2019-03-20T01:53:29.429Z,102544.47
2019-03-20T01:55:35.894Z,102543.70
2019-03-20T01:57:42.578Z,102545.61
2019-03-20T01:59:49.293Z,102543.69
2019-03-20T02:01:55.703Z,102547.35
2019-03-20T02:04:03.392Z,102544.55
2019-03-20T02:06:09.854Z,102543.38
2019-03-20T02:08:16.950Z,102547.41
2019-03-20T02:10:23.397Z,102548.92
2019-03-20T02:12:32.879Z,102545.30
2019-03-20T02:14:40.110Z,102539.17
2019-03-20T02:16:46.482Z,102546.11
2019-03-20T02:18:53.346Z,102546.70
2019-03-20T02:21:01.465Z,102550.77
2019-03-20T02:23:08.024Z,102552.83
2019-03-20T02:25:15.463Z,102555.97
2019-03-20T02:27:21.969Z,102550.91
2019-03-20T02:29:28.329Z,102558.77
2019-03-20T02:31:34.703Z,102557.62
2019-03-20T02:33:41.239Z,102559.88
2019-03-20T02:35:51.962Z,102557.33
2019-03-20T02:37:55.952Z,102557.40
2019-03-20T02:40:02.516Z,102557.09
2019-03-20T02:42:09.548Z,102557.98
2019-03-20T02:44:18.121Z,102555.33
2019-03-20T02:46:24.780Z,102547.77
2019-03-20T02:48:31.144Z,102555.82
2019-03-20T02:50:37.709Z,102557.70
2019-03-20T02:52:44.308Z,102554.49
2019-03-20T02:54:50.739Z,102556.60
2019-03-20T02:56:57.204Z,102556.30
2019-03-20T02:59:04.188Z,102555.94
2019-03-20T03:01:10.757Z,102558.13
2019-03-20T03:03:17.418Z,102553.86
2019-03-20T03:05:24.193Z,102551.35
2019-03-20T03:07:31.154Z,102548.32
2019-03-20T03:09:37.533Z,102557.48
2019-03-20T03:11:44.502Z,102554.56
2019-03-20T03:13:50.870Z,102558.37
2019-03-20T03:15:57.228Z,102555.78
2019-03-20T03:18:03.998Z,102556.38
2019-03-20T03:20:17.462Z,102558.55
2019-03-20T03:22:23.790Z,102553.83
2019-03-20T03:24:31.488Z,102560.28
2019-03-20T03:26:37.849Z,102564.16
2019-03-20T03:28:44.612Z,102560.36
2019-03-20T03:30:50.982Z,102564.63
2019-03-20T03:32:58.175Z,102561.98
2019-03-20T03:35:08.536Z,102554.92
2019-03-20T03:37:15.082Z,102557.67
2019-03-20T03:39:22.167Z,102561.43
2019-03-20T03:41:28.516Z,102562.56
2019-03-20T03:43:34.880Z,102566.84
2019-03-20T03:45:41.919Z,102572.89
2019-03-20T03:47:48.635Z,102567.66
2019-03-20T03:49:56.009Z,102564.70
2019-03-20T03:52:02.885Z,102568.63
2019-03-20T03:54:09.152Z,102572.73
2019-03-20T03:56:16.934Z,102580.12
2019-03-20T03:58:23.322Z,102583.27
2019-03-20T04:00:30.103Z,102576.00
2019-03-20T04:02:37.904Z,102579.39
2019-03-20T04:04:44.564Z,102581.05
2019-03-20T04:06:50.999Z,102579.75
2019-03-20T04:08:57.588Z,102592.82
2019-03-20T04:13:16.637Z,102592.02
2019-03-20T04:15:23.010Z,102598.59
2019-03-20T04:17:29.584Z,102601.30
2019-03-20T04:19:37.911Z,102602.74
2019-03-20T04:21:44.041Z,102600.92
2019-03-20T04:23:50.830Z,102600.08
2019-03-20T04:25:58.730Z,102604.80
2019-03-20T04:28:05.288Z,102607.58
2019-03-20T04:30:20.014Z,102609.09
2019-03-20T04:32:26.523Z,102608.41
2019-03-20T04:34:33.291Z,102618.34
2019-03-20T04:36:47.485Z,102619.45
2019-03-20T04:38:47.755Z,102622.18
2019-03-20T04:40:54.111Z,102619.30
2019-03-20T04:43:00.653Z,102623.97
2019-03-20T04:45:13.512Z,102626.81
2019-03-20T04:47:21.503Z,102625.23
2019-03-20T04:49:28.088Z,102632.33
2019-03-20T04:51:34.539Z,102632.58
2019-03-20T04:53:41.412Z,102638.06
2019-03-20T04:55:48.363Z,102644.47
2019-03-20T04:57:54.757Z,102638.21
2019-03-20T05:00:02.664Z,102645.69
2019-03-20T05:02:09.705Z,102654.01
2019-03-20T05:04:16.289Z,102655.22
2019-03-20T05:06:24.485Z,102651.59
2019-03-20T05:08:31.163Z,102655.05
2019-03-20T05:10:37.529Z,102653.84
2019-03-20T05:12:44.209Z,102651.34
2019-03-20T05:14:50.880Z,102658.07
2019-03-20T05:16:59.181Z,102659.09
2019-03-20T05:19:05.906Z,102657.23
2019-03-20T05:21:12.621Z,102662.41
2019-03-20T05:23:18.982Z,102663.66
2019-03-20T05:25:25.341Z,102663.22
2019-03-20T05:27:32.005Z,102669.67
2019-03-20T05:29:38.474Z,102667.05
2019-03-20T05:31:44.855Z,102669.63
2019-03-20T05:33:51.960Z,102666.92
2019-03-20T05:35:58.590Z,102665.31
2019-03-20T05:38:04.964Z,102670.59
2019-03-20T05:40:17.038Z,102656.95
2019-03-20T05:42:23.416Z,102659.02
2019-03-20T05:44:29.976Z,102664.78
2019-03-20T05:46:36.466Z,102668.23
2019-03-20T05:48:43.426Z,102666.25
2019-03-20T05:50:49.786Z,102670.73
2019-03-20T05:53:00.162Z,102666.56
2019-03-20T05:55:08.463Z,102666.03
2019-03-20T05:57:14.807Z,102669.56
2019-03-20T05:59:21.296Z,102667.87
2019-03-20T06:01:27.643Z,102677.25
2019-03-20T06:03:36.865Z,102671.86
2019-03-20T06:05:46.045Z,102674.38
2019-03-20T06:07:52.357Z,102668.55
2019-03-20T06:10:00.481Z,102673.47
2019-03-20T06:12:06.885Z,102679.53
2019-03-20T06:14:13.285Z,102674.59
2019-03-20T06:16:20.264Z,102676.71
2019-03-20T06:18:28.342Z,102682.56
2019-03-20T06:20:42.955Z,102688.44
2019-03-20T06:22:49.395Z,102690.94
2019-03-20T06:24:55.754Z,102689.95
2019-03-20T06:27:04.276Z,102691.31
2019-03-20T06:29:10.608Z,102692.75
2019-03-20T06:31:18.793Z,102699.39
2019-03-20T06:33:25.099Z,102706.00
2019-03-20T06:35:33.456Z,102709.47
2019-03-20T06:37:40.155Z,102710.66
2019-03-20T06:39:46.535Z,102708.00
2019-03-20T06:41:53.082Z,102717.55
2019-03-20T06:43:59.455Z,102716.02
2019-03-20T06:46:06.044Z,102712.23
2019-03-20T06:48:12.794Z,102721.24
2019-03-20T06:50:21.394Z,102709.69
2019-03-20T06:52:27.878Z,102713.38
2019-03-20T06:54:35.677Z,102704.98
2019-03-20T06:56:42.456Z,102703.97
2019-03-20T06:58:50.452Z,102719.88
2019-03-20T07:01:09.725Z,102727.67
2019-03-20T07:03:51.934Z,102724.53
2019-03-20T07:06:11.764Z,102731.02
2019-03-20T07:08:19.115Z,102728.46
2019-03-20T07:10:41.593Z,102726.05
2019-03-20T07:12:48.804Z,102729.81
2019-03-20T07:14:55.441Z,102731.30
2019-03-20T07:17:02.045Z,102732.34
2019-03-20T07:19:08.745Z,102735.91
2019-03-20T07:21:18.661Z,102737.06
2019-03-20T07:23:24.803Z,102730.93
2019-03-20T07:25:31.157Z,102731.67
2019-03-20T07:27:37.654Z,102729.83
2019-03-20T07:29:46.974Z,102738.76
2019-03-20T07:31:53.554Z,102739.93
2019-03-20T07:34:00.220Z,102743.69
2019-03-20T07:36:07.012Z,102748.36
2019-03-20T07:38:14.261Z,102745.04
2019-03-20T07:40:22.066Z,102744.94
2019-03-20T07:42:29.444Z,102743.80
2019-03-20T07:44:35.922Z,102747.52
2019-03-20T07:46:43.774Z,102747.80
2019-03-20T07:48:51.833Z,102750.60
2019-03-20T07:50:58.184Z,102752.55
2019-03-20T07:53:04.846Z,102754.61
2019-03-20T07:55:11.515Z,102748.73
2019-03-20T07:57:17.880Z,102746.52
2019-03-20T07:59:24.732Z,102755.48
2019-03-20T08:01:31.116Z,102756.62
2019-03-20T08:03:37.602Z,102757.57
2019-03-20T08:05:44.040Z,102757.34
2019-03-20T08:07:51.537Z,102762.69
2019-03-20T08:09:57.907Z,102759.26
2019-03-20T08:12:04.363Z,102753.87
2019-03-20T08:14:11.032Z,102761.11
2019-03-20T08:16:17.507Z,102755.70
2019-03-20T08:18:24.085Z,102757.19
2019-03-20T08:20:31.840Z,102758.35
2019-03-20T08:22:38.233Z,102759.06
2019-03-20T08:24:44.904Z,102754.47
2019-03-20T08:26:51.355Z,102749.84
2019-03-20T08:28:58.028Z,102755.78
2019-03-20T08:31:05.083Z,102754.11
2019-03-20T08:33:11.465Z,102756.30
2019-03-20T08:35:17.933Z,102743.66
2019-03-20T08:37:24.499Z,102752.69
2019-03-20T08:39:35.055Z,102753.58
2019-03-20T08:41:41.912Z,102753.97
2019-03-20T08:43:49.953Z,102757.97
2019-03-20T08:45:57.199Z,102762.45
2019-03-20T08:48:03.979Z,102767.25
2019-03-20T08:50:23.432Z,102763.23
2019-03-20T08:52:30.044Z,102768.05
2019-03-20T08:54:36.583Z,102769.81
2019-03-20T08:56:44.474Z,102768.13
2019-03-20T08:58:51.592Z,102773.31
2019-03-20T09:00:58.315Z,102773.91
2019-03-20T09:03:05.358Z,102770.97
2019-03-20T09:05:14.231Z,102774.51
2019-03-20T09:07:20.532Z,102781.55
2019-03-20T09:09:29.046Z,102788.87
2019-03-20T09:11:35.502Z,102784.82
2019-03-20T09:13:42.977Z,102786.08
2019-03-20T09:15:49.922Z,102783.19
2019-03-20T09:17:56.362Z,102775.95
2019-03-20T09:20:02.676Z,102773.80
2019-03-20T09:22:09.252Z,102773.08
2019-03-20T09:24:16.324Z,102775.23
2019-03-20T09:26:23.298Z,102781.67
2019-03-20T09:28:29.675Z,102780.75
2019-03-20T09:30:36.034Z,102774.22
2019-03-20T09:32:42.490Z,102773.46
2019-03-20T09:34:48.951Z,102776.27
2019-03-20T09:36:55.432Z,102776.08
2019-03-20T09:39:01.786Z,102776.16
2019-03-20T09:41:09.694Z,102777.88
2019-03-20T09:43:16.254Z,102768.90
2019-03-20T09:45:24.048Z,102778.89
2019-03-20T09:47:31.952Z,102769.90
2019-03-20T09:49:38.310Z,102766.63
2019-03-20T09:51:44.884Z,102775.31
2019-03-20T09:53:53.279Z,102766.05
2019-03-20T09:56:06.727Z,102771.20
2019-03-20T09:58:13.283Z,102767.41
2019-03-20T10:00:28.308Z,102762.67
2019-03-20T10:02:34.609Z,102761.36
2019-03-20T10:04:41.082Z,102751.25
2019-03-20T10:06:47.551Z,102747.77
2019-03-20T10:08:54.627Z,102747.05
2019-03-20T10:11:01.253Z,102746.70
2019-03-20T10:13:08.612Z,102746.73
2019-03-20T10:15:29.816Z,102746.20
2019-03-20T10:17:36.462Z,102749.84
2019-03-20T10:19:43.146Z,102744.38
2019-03-20T10:21:49.683Z,102754.61
2019-03-20T10:23:56.764Z,102747.21
2019-03-20T10:26:03.530Z,102751.53
2019-03-20T10:28:10.324Z,102743.68
2019-03-20T10:30:30.835Z,102742.86
2019-03-20T10:32:37.678Z,102746.79
2019-03-20T10:34:44.152Z,102746.90
2019-03-20T10:36:50.540Z,102744.25
2019-03-20T10:39:06.024Z,102737.69
2019-03-20T10:41:05.553Z,102739.16
2019-03-20T10:43:12.183Z,102740.14
2019-03-20T10:45:23.288Z,102753.31
2019-03-20T10:47:29.634Z,102758.09
2019-03-20T10:49:37.672Z,102761.19
2019-03-20T10:51:45.985Z,102759.42
2019-03-20T10:53:52.528Z,102763.84
2019-03-20T10:56:00.542Z,102752.48
2019-03-20T10:58:08.730Z,102752.95
2019-03-20T11:00:26.253Z,102757.36
2019-03-20T11:02:33.819Z,102749.94
2019-03-20T11:04:41.780Z,102757.81
2019-03-20T11:06:48.542Z,102759.16
2019-03-20T11:08:58.282Z,102754.83
2019-03-20T11:11:05.011Z,102750.81
2019-03-20T11:13:11.587Z,102750.80
2019-03-20T11:15:23.089Z,102745.55
2019-03-20T11:17:29.305Z,102742.13
2019-03-20T11:19:36.014Z,102735.22
2019-03-20T11:21:42.534Z,102738.77
2019-03-20T11:23:49.306Z,102729.69
2019-03-20T11:25:55.664Z,102726.30
2019-03-20T11:28:02.145Z,102730.27
2019-03-20T11:30:18.872Z,102725.92
2019-03-20T11:32:26.332Z,102725.99
2019-03-20T11:34:32.821Z,102736.48
2019-03-20T11:36:39.402Z,102731.25
2019-03-20T11:38:47.607Z,102730.81
2019-03-20T11:40:54.243Z,102728.12
2019-03-20T11:43:01.322Z,102724.57
2019-03-20T11:45:11.172Z,102725.06
2019-03-20T11:47:18.465Z,102722.88
2019-03-20T11:49:24.926Z,102718.95
2019-03-20T11:51:31.401Z,102712.44
2019-03-20T11:53:39.606Z,102712.95
2019-03-20T11:55:47.004Z,102704.66
2019-03-20T11:57:55.042Z,102696.81
2019-03-20T12:00:03.939Z,102691.14
2019-03-20T12:02:10.583Z,102674.97
2019-03-20T12:04:17.657Z,102671.06
2019-03-20T12:06:27.080Z,102665.37
2019-03-20T12:08:33.703Z,102670.23
2019-03-20T12:10:40.013Z,102673.25
2019-03-20T12:12:48.331Z,102672.38
2019-03-20T12:14:56.432Z,102664.48
2019-03-20T12:17:04.548Z,102669.30
2019-03-20T12:19:10.906Z,102662.76
2019-03-20T12:21:17.672Z,102657.92
2019-03-20T12:23:26.242Z,102663.63
2019-03-20T12:25:41.163Z,102663.22
2019-03-20T12:27:47.612Z,102670.68
2019-03-20T12:29:54.129Z,102667.61
2019-03-20T12:32:02.493Z,102663.23
2019-03-20T12:34:10.350Z,102659.73
2019-03-20T12:36:16.858Z,102651.86
2019-03-20T12:38:23.634Z,102643.55
2019-03-20T12:40:34.183Z,102646.14
2019-03-20T12:42:41.133Z,102643.08
2019-03-20T12:44:47.630Z,102639.59
2019-03-20T12:46:54.948Z,102643.96
2019-03-20T12:49:01.643Z,102646.16
2019-03-20T12:51:08.382Z,102645.69
2019-03-20T12:53:25.182Z,102644.41
2019-03-20T12:55:33.379Z,102643.08
2019-03-20T12:57:40.133Z,102645.29
2019-03-20T12:59:48.520Z,102641.77
2019-03-20T13:01:55.163Z,102634.75
2019-03-20T13:04:03.074Z,102638.25
2019-03-20T13:06:11.233Z,102639.99
2019-03-20T13:08:18.819Z,102638.26
2019-03-20T13:10:27.123Z,102635.63
2019-03-20T13:12:33.682Z,102633.87
2019-03-20T13:14:44.721Z,102626.43
2019-03-20T13:16:52.543Z,102619.44
2019-03-20T13:18:59.392Z,102618.58
2019-03-20T13:21:07.406Z,102622.48
2019-03-20T13:23:25.070Z,102610.70
2019-03-20T13:25:33.389Z,102609.83
2019-03-20T13:27:41.792Z,102600.63
2019-03-20T13:29:48.664Z,102603.23
2019-03-20T13:31:55.407Z,102591.80
2019-03-20T13:34:01.786Z,102584.80
2019-03-20T13:36:08.814Z,102579.10
2019-03-20T13:38:15.446Z,102572.13
2019-03-20T13:40:22.320Z,102577.37
2019-03-20T13:42:28.983Z,102580.88
2019-03-20T13:44:35.756Z,102579.58
2019-03-20T13:46:42.436Z,102580.84
2019-03-20T13:48:49.372Z,102583.91
2019-03-20T13:50:57.909Z,102584.38
2019-03-20T13:53:06.037Z,102587.45
2019-03-20T13:55:17.299Z,102580.02
2019-03-20T13:57:23.669Z,102580.03
2019-03-20T13:59:31.439Z,102579.16
2019-03-20T14:01:38.327Z,102577.84
2019-03-20T14:03:47.499Z,102581.77
2019-03-20T14:05:55.357Z,102576.95
2019-03-20T14:08:02.140Z,102584.38
2019-03-20T14:10:24.589Z,102575.63
2019-03-20T14:12:27.036Z,102568.60
2019-03-20T14:14:33.457Z,102569.47
2019-03-20T14:16:41.198Z,102569.47
2019-03-20T14:18:47.899Z,102565.55
2019-03-20T14:20:54.544Z,102570.31
2019-03-20T14:23:01.837Z,102571.12
2019-03-20T14:25:12.672Z,102577.66
2019-03-20T14:27:19.260Z,102574.59
2019-03-20T14:29:29.509Z,102579.41
2019-03-20T14:31:36.239Z,102584.18
2019-03-20T14:33:42.899Z,102591.55
2019-03-20T14:35:50.552Z,102597.15
2019-03-20T14:37:57.170Z,102597.17
2019-03-20T14:40:04.828Z,102588.85
2019-03-20T14:42:14.257Z,102594.08
2019-03-20T14:44:20.806Z,102587.52
2019-03-20T14:46:28.780Z,102588.88
2019-03-20T14:48:35.940Z,102588.91
2019-03-20T14:50:42.686Z,102592.00
2019-03-20T14:52:49.362Z,102599.05
2019-03-20T14:54:56.309Z,102590.73
2019-03-20T14:57:02.993Z,102582.90
2019-03-20T14:59:09.350Z,102579.81
2019-03-20T15:01:16.302Z,102569.34
2019-03-20T15:03:23.396Z,102569.77
2019-03-20T15:05:30.300Z,102566.69
2019-03-20T15:07:38.255Z,102563.62
2019-03-20T15:09:45.556Z,102561.87
2019-03-20T15:11:54.024Z,102560.14
2019-03-20T15:14:00.653Z,102571.59
2019-03-20T15:16:13.673Z,102576.42
2019-03-20T15:18:20.224Z,102584.70
2019-03-20T15:20:26.994Z,102595.23
2019-03-20T15:22:35.555Z,102579.06
2019-03-20T15:24:42.690Z,102579.84
2019-03-20T15:26:49.438Z,102585.49
2019-03-20T15:29:01.498Z,102580.67
2019-03-20T15:31:09.458Z,102567.14
2019-03-20T15:33:16.570Z,102554.02
2019-03-20T15:35:23.433Z,102550.53
2019-03-20T15:37:30.669Z,102557.52
2019-03-20T15:39:37.604Z,102558.34
2019-03-20T15:41:45.001Z,102569.31
2019-03-20T15:44:01.962Z,102569.78
2019-03-20T15:46:01.299Z,102575.00
2019-03-20T15:48:08.489Z,102567.14
2019-03-20T15:50:18.518Z,102564.95
2019-03-20T15:52:26.645Z,102570.25
2019-03-20T15:54:33.814Z,102568.47
2019-03-20T15:56:40.550Z,102568.02
2019-03-20T15:58:50.426Z,102561.28
2019-03-20T16:01:01.142Z,102552.59
2019-03-20T16:03:14.895Z,102553.47
2019-03-20T16:05:26.422Z,102551.38
2019-03-20T16:07:36.421Z,102554.91
2019-03-20T16:09:46.651Z,102558.48
2019-03-20T16:11:56.875Z,102557.20
2019-03-20T16:14:06.601Z,102565.11
2019-03-20T16:16:18.621Z,102567.31
2019-03-20T16:18:30.260Z,102570.41
2019-03-20T16:20:41.388Z,102570.86
2019-03-20T16:22:55.940Z,102580.51
2019-03-20T16:25:03.927Z,102584.43
2019-03-20T16:27:11.808Z,102579.63
2019-03-20T16:29:19.670Z,102590.16
2019-03-20T16:31:27.951Z,102588.41
2019-03-20T16:33:42.382Z,102580.92
2019-03-20T16:35:51.737Z,102579.19
2019-03-20T16:37:59.771Z,102578.30
2019-03-20T16:40:15.330Z,102567.82
2019-03-20T16:42:27.699Z,102570.02
2019-03-20T16:44:35.821Z,102568.70
2019-03-20T16:46:45.482Z,102577.01
2019-03-20T16:48:53.569Z,102581.81
2019-03-20T16:51:03.649Z,102594.92
2019-03-20T16:53:12.847Z,102594.92
2019-03-20T16:55:22.880Z,102586.20
2019-03-20T16:57:32.204Z,102578.30
2019-03-20T16:59:43.234Z,102582.27
2019-03-20T17:01:53.736Z,102580.48
2019-03-20T17:04:05.684Z,102586.17
2019-03-20T17:06:18.058Z,102582.22
2019-03-20T17:08:33.924Z,102580.92
2019-03-20T17:10:47.809Z,102581.34
2019-03-20T17:12:59.847Z,102579.14
2019-03-20T17:15:19.287Z,102577.41
2019-03-20T17:17:29.000Z,102566.45
2019-03-20T17:19:40.706Z,102566.92
2019-03-20T17:21:49.733Z,102569.97
2019-03-20T17:23:57.911Z,102569.09
2019-03-20T17:26:05.349Z,102564.73
2019-03-20T17:28:19.590Z,102565.16
2019-03-20T17:30:39.751Z,102562.10
2019-03-20T17:32:48.131Z,102558.15
2019-03-20T17:34:58.156Z,102558.14
2019-03-20T17:37:06.023Z,102559.43
2019-03-20T17:39:19.552Z,102562.50
2019-03-20T17:41:36.285Z,102567.73
2019-03-20T17:43:36.570Z,102561.16
2019-03-20T17:45:44.934Z,102570.78
2019-03-20T17:47:52.050Z,102569.91
2019-03-20T17:49:59.758Z,102568.60
2019-03-20T17:52:11.258Z,102568.60
2019-03-20T17:54:26.256Z,102572.53
2019-03-20T17:56:38.448Z,102577.33
2019-03-20T17:58:51.459Z,102575.58
2019-03-20T18:01:01.199Z,102572.50
2019-03-20T18:03:14.233Z,102567.25
2019-03-20T18:05:27.495Z,102562.48
2019-03-20T18:07:40.860Z,102567.70
2019-03-20T18:09:54.608Z,102568.58
2019-03-20T18:12:08.384Z,102567.28
2019-03-20T18:14:21.879Z,102575.16
2019-03-20T18:16:33.680Z,102569.03
2019-03-20T18:18:49.838Z,102557.23
2019-03-20T18:21:06.333Z,102561.59
2019-03-20T18:23:19.604Z,102555.94
2019-03-20T18:25:32.761Z,102567.28
2019-03-20T18:27:46.455Z,102563.80
2019-03-20T18:30:01.457Z,102569.92
2019-03-20T18:32:11.695Z,102573.84
2019-03-20T18:34:21.110Z,102573.84
2019-03-20T18:36:35.703Z,102572.97
2019-03-20T18:38:49.712Z,102571.67
2019-03-20T18:41:03.758Z,102575.61
2019-03-20T18:43:15.197Z,102563.38
2019-03-20T18:45:26.479Z,102562.94
2019-03-20T18:47:33.978Z,102559.44
2019-03-20T18:49:41.102Z,102557.26
2019-03-20T18:51:48.311Z,102562.06
2019-03-20T18:53:55.214Z,102554.20
2019-03-20T18:56:02.717Z,102563.38
2019-03-20T18:58:09.983Z,102557.25
2019-03-20T19:00:31.712Z,102558.13
2019-03-20T19:02:39.737Z,102556.35
2019-03-20T19:04:47.653Z,102552.88
2019-03-20T19:06:55.498Z,102554.20
2019-03-20T19:09:03.289Z,102547.64
2019-03-20T19:11:14.142Z,102551.57
2019-03-20T19:13:24.390Z,102551.98
2019-03-20T19:15:34.195Z,102561.17
2019-03-20T19:17:42.840Z,102548.07
2019-03-20T19:19:51.596Z,102553.72
2019-03-20T19:21:59.432Z,102552.88
2019-03-20T19:24:06.588Z,102565.11
2019-03-20T19:26:13.897Z,102564.66
2019-03-20T19:28:21.101Z,102566.85
2019-03-20T19:30:31.949Z,102566.43
2019-03-20T19:32:40.202Z,102579.98
2019-03-20T19:34:47.177Z,102585.23
2019-03-20T19:36:54.362Z,102580.41
2019-03-20T19:39:01.556Z,102586.11
2019-03-20T19:41:10.262Z,102575.62
2019-03-20T19:43:22.760Z,102585.67
2019-03-20T19:45:31.180Z,102585.67
2019-03-20T19:47:45.319Z,102579.56
2019-03-20T19:52:13.029Z,102588.73
2019-03-20T19:54:21.301Z,102583.48
2019-03-20T19:56:28.840Z,102586.55
2019-03-20T19:58:42.715Z,102594.40
2019-03-20T20:00:59.293Z,102601.83
2019-03-20T20:03:06.595Z,102602.70
2019-03-20T20:05:16.186Z,102611.45
2019-03-20T20:07:23.484Z,102610.14
2019-03-20T20:09:30.728Z,102610.58
2019-03-20T20:11:37.698Z,102610.58
2019-03-20T20:13:46.779Z,102604.02
2019-03-20T20:15:53.917Z,102598.77
2019-03-20T20:18:01.066Z,102604.45
2019-03-20T20:20:20.360Z,102598.77
2019-03-20T20:22:27.497Z,102596.59
2019-03-20T20:24:34.958Z,102589.14
2019-03-20T20:26:42.238Z,102581.72
2019-03-20T20:28:48.958Z,102577.80
2019-03-20T20:30:56.286Z,102573.86
2019-03-20T20:33:03.329Z,102572.13
2019-03-20T20:35:12.658Z,102569.92
2019-03-20T20:37:21.485Z,102563.38
2019-03-20T20:39:28.896Z,102566.02
2019-03-20T20:41:37.593Z,102568.19
2019-03-20T20:44:06.761Z,102566.45
2019-03-20T20:46:16.669Z,102564.69
2019-03-20T20:48:24.338Z,102562.97
2019-03-20T20:50:33.383Z,102562.09
2019-03-20T20:52:41.311Z,102560.77
2019-03-20T20:54:48.929Z,102560.77
2019-03-20T20:56:56.250Z,102561.66
2019-03-20T20:59:06.226Z,102560.77
2019-03-20T21:01:14.287Z,102550.73
2019-03-20T21:03:21.402Z,102559.91
2019-03-20T21:05:28.731Z,102556.84
2019-03-20T21:07:36.452Z,102556.82
2019-03-20T21:09:44.704Z,102566.02
2019-03-20T21:11:52.041Z,102561.20
2019-03-20T21:14:00.492Z,102563.38
2019-03-20T21:16:07.590Z,102570.39
2019-03-20T21:18:35.254Z,102569.92
2019-03-20T21:20:42.459Z,102569.94
2019-03-20T21:23:26.526Z,102570.80
2019-03-20T21:25:34.035Z,102576.05
2019-03-20T21:28:16.376Z,102571.23
2019-03-20T21:30:49.310Z,102563.38
2019-03-20T21:33:11.411Z,102559.00
2019-03-20T21:35:45.897Z,102559.44
2019-03-20T21:38:07.914Z,102560.77
2019-03-20T21:40:17.217Z,102564.25
2019-03-20T21:42:53.268Z,102569.08
2019-03-20T21:45:37.819Z,102567.32
2019-03-20T21:47:46.461Z,102551.16
2019-03-20T21:49:53.415Z,102550.70
2019-03-20T21:52:01.730Z,102553.33
2019-03-20T21:54:16.601Z,102548.06
2019-03-20T21:57:00.145Z,102545.89
2019-03-20T21:59:20.257Z,102548.96
2019-03-20T22:01:59.758Z,102555.94
2019-03-20T22:04:12.125Z,102561.59
2019-03-20T22:06:55.880Z,102571.64
2019-03-20T22:09:03.234Z,102580.39
2019-03-20T22:11:33.796Z,102575.58
2019-03-20T22:13:51.862Z,102569.45
2019-03-20T22:16:25.439Z,102571.64
2019-03-20T22:19:07.525Z,102566.41
2019-03-20T22:21:43.802Z,102569.48
2019-03-20T22:24:19.544Z,102554.61
2019-03-20T22:26:48.425Z,102547.17
2019-03-20T22:29:26.093Z,102547.19
2019-03-20T22:31:38.236Z,102545.00
2019-03-20T22:34:40.612Z,102547.64
2019-03-20T22:36:48.229Z,102547.64
2019-03-20T22:39:11.984Z,102558.98
2019-03-20T22:41:40.565Z,102560.30
2019-03-20T22:43:53.995Z,102554.61
2019-03-20T22:46:33.521Z,102557.25
2019-03-20T22:49:04.781Z,102560.76
2019-03-20T22:51:49.024Z,102565.11
2019-03-20T22:54:36.247Z,102563.80
2019-03-20T22:57:07.729Z,102567.31
2019-03-20T22:59:14.057Z,102569.06
2019-03-20T23:01:44.282Z,102559.46
2019-03-20T23:04:14.405Z,102556.84
2019-03-20T23:06:20.958Z,102564.70
2019-03-20T23:08:28.759Z,102564.70
2019-03-20T23:10:36.546Z,102557.72
2019-03-20T23:12:44.768Z,102559.01
2019-03-20T23:14:51.548Z,102560.75
2019-03-20T23:17:01.414Z,102559.46
2019-03-20T23:19:10.539Z,102562.08
2019-03-20T23:21:18.210Z,102560.34
2019-03-20T23:23:26.190Z,102556.38
2019-03-20T23:25:32.762Z,102548.53
2019-03-20T23:27:39.121Z,102552.90
2019-03-20T23:29:45.682Z,102548.10
2019-03-20T23:31:52.059Z,102541.97
2019-03-20T23:34:02.312Z,102551.14
2019-03-20T23:36:10.625Z,102552.91
2019-03-20T23:38:17.218Z,102559.03
2019-03-20T23:40:26.430Z,102559.03
2019-03-20T23:42:35.124Z,102559.91
2019-03-20T23:44:42.731Z,102562.09
2019-03-20T23:46:49.764Z,102564.71
2019-03-20T23:49:02.496Z,102571.70
2019-03-20T23:51:18.913Z,102578.72
2019-03-20T23:53:25.629Z,102579.58
2019-03-20T23:55:32.146Z,102580.89
2019-03-20T23:57:38.617Z,102574.78
2019-03-20T23:59:47.428Z,102578.25
